Terminal Aerodrome Forecast
Issued by NWS Wilmington, NC

Home | Current Version | Previous Version | Text Only | Print | Product List | Glossary On
Versions: 1 2 3 4 5 6 7 8 9 10 11 12 13 14 15 16 17 18 19
875
FTUS42 KILM 161120
TAFLBT
TAF
KLBT 161120Z 1612/1712 08006KT 6SM BR OVC008
     FM161600 07004KT P6SM SCT007 BKN015
     FM162000 09004KT P6SM BKN025 OVC050
     FM170600 08003KT 1SM BR OVC004=

USA.gov is the U.S. government's official web portal to all federal, state and local government web resources and services.